Time;durP1;ratioP1;P1;durP2;ratioP2;P2;SDS_P1;SDS_P2;PMS_P1;PMS_P2;Temp;Humidity;BMP_temperature;BMP_pressure;BME280_temperature;BME280_humidity;BME280_pressure;Samples;Min_cycle;Max_cycle;Signal;HPM_P1;HPM_P2
2022/11/06 05:30:12;;;;;;;4.47;1.75;;;14.30;88.00;;;;;;6070592;23;20017;-79
2022/11/06 05:32:38;;;;;;;5.22;1.92;;;14.30;88.00;;;;;;5003240;28;20571;-80
2022/11/06 05:35:04;;;;;;;5.97;2.03;;;14.40;88.00;;;;;;5015565;28;20032;-80
2022/11/06 05:37:30;;;;;;;6.00;2.00;;;14.40;88.00;;;;;;5015505;28;20026;-79
2022/11/06 05:39:55;;;;;;;3.20;1.88;;;14.30;87.80;;;;;;4993772;28;20050;-79
2022/11/06 05:42:21;;;;;;;3.75;1.88;;;14.30;88.20;;;;;;4995980;28;20412;-80
2022/11/06 05:44:47;;;;;;;2.72;1.95;;;14.30;88.10;;;;;;5015776;28;20044;-79
2022/11/06 05:47:12;;;;;;;4.57;2.05;;;14.30;88.10;;;;;;4998094;28;20026;-81
2022/11/06 05:49:38;;;;;;;2.85;1.90;;;14.40;88.10;;;;;;4997635;28;20081;-80
2022/11/06 05:52:04;;;;;;;3.08;1.88;;;14.40;88.10;;;;;;4996119;28;20117;-79
2022/11/06 05:54:39;;;;;;;;;;;;;;;;;;;;;
2022/11/06 05:57:05;;;;;;;5.43;1.50;;;14.30;87.90;;;;;;4999942;28;20057;-80
2022/11/06 05:59:31;;;;;;;3.03;1.80;;;14.30;88.10;;;;;;4993767;28;20449;-81
2022/11/06 06:01:58;;;;;;;3.85;2.30;;;14.30;88.30;;;;;;4990789;28;20396;-81
2022/11/06 06:04:24;;;;;;;3.38;1.70;;;14.30;88.30;;;;;;5009585;28;20720;-81
2022/11/06 06:06:49;;;;;;;4.38;1.65;;;14.30;88.40;;;;;;5009881;28;20399;-81
2022/11/06 06:09:15;;;;;;;2.50;1.42;;;14.30;88.40;;;;;;5014445;28;20399;-80
2022/11/06 06:11:43;;;;;;;5.97;1.50;;;14.30;88.30;;;;;;4998374;28;20113;-81
2022/11/06 06:14:09;;;;;;;4.60;1.60;;;14.30;88.20;;;;;;5015800;28;20034;-81
2022/11/06 06:16:34;;;;;;;3.65;1.50;;;14.30;88.20;;;;;;5014519;28;20109;-80
2022/11/06 06:19:00;;;;;;;2.45;1.83;;;14.30;88.20;;;;;;5015564;28;20022;-81
2022/11/06 06:21:26;;;;;;;4.20;1.60;;;14.30;88.10;;;;;;5015747;28;20165;-80
2022/11/06 06:23:51;;;;;;;2.40;1.50;;;14.30;88.20;;;;;;5014373;28;20068;-80
2022/11/06 06:26:17;;;;;;;3.10;1.42;;;14.30;88.00;;;;;;5015802;28;20037;-80
2022/11/06 06:28:50;;;;;;;3.70;1.40;;;14.30;88.10;;;;;;5002511;28;20026;-81
2022/11/06 06:31:15;;;;;;;3.78;1.67;;;14.30;88.00;;;;;;4995918;28;20054;-80
2022/11/06 06:33:41;;;;;;;2.40;1.75;;;14.30;88.00;;;;;;4995773;28;20030;-81
2022/11/06 06:36:07;;;;;;;2.92;1.48;;;14.30;88.00;;;;;;4978622;28;20034;-81
2022/11/06 06:38:33;;;;;;;4.22;1.73;;;14.30;88.10;;;;;;4993399;28;20030;-81
2022/11/06 06:41:04;;;;;;;2.28;1.55;;;14.30;88.00;;;;;;4995987;28;20499;-80
2022/11/06 06:43:29;;;;;;;3.92;1.67;;;14.20;88.00;;;;;;4978269;28;20030;-80
2022/11/06 06:46:00;;;;;;;3.00;1.50;;;14.20;88.00;;;;;;4996016;28;20033;-81
2022/11/06 06:48:26;;;;;;;3.95;1.63;;;14.30;88.40;;;;;;4995678;28;20392;-81
2022/11/06 06:51:14;;;;;;;;;;;;;;;;;;;;;
2022/11/06 06:53:39;;;;;;;1.58;1.20;;;14.30;88.10;;;;;;4995651;28;20097;-84
2022/11/06 06:56:06;;;;;;;2.15;1.30;;;14.30;88.00;;;;;;4978514;28;20069;-79
2022/11/06 06:58:31;;;;;;;2.08;1.30;;;14.30;87.90;;;;;;4993727;28;20018;-81
2022/11/06 07:01:02;;;;;;;3.75;1.52;;;14.30;88.00;;;;;;5009106;28;20102;-81
2022/11/06 07:03:28;;;;;;;4.20;1.40;;;14.30;88.00;;;;;;5012654;28;20084;-83
2022/11/06 07:05:54;;;;;;;2.92;1.15;;;14.30;88.00;;;;;;5017505;28;20034;-84
2022/11/06 07:08:19;;;;;;;1.88;1.33;;;14.40;87.80;;;;;;5010413;28;20026;-81
2022/11/06 07:10:45;;;;;;;2.38;1.30;;;14.40;87.80;;;;;;4999326;28;20057;-82
2022/11/06 07:13:10;;;;;;;2.10;1.35;;;14.40;87.70;;;;;;5009813;28;20025;-79
2022/11/06 07:15:36;;;;;;;4.28;1.70;;;14.40;87.70;;;;;;5018960;28;20096;-81
2022/11/06 07:18:03;;;;;;;5.18;1.70;;;14.40;87.80;;;;;;5018262;28;20028;-81
2022/11/06 07:20:29;;;;;;;1.73;1.42;;;14.30;87.70;;;;;;5007366;28;20511;-80
2022/11/06 07:22:55;;;;;;;1.25;0.90;;;14.30;87.80;;;;;;4998743;28;20034;-79
2022/11/06 07:25:24;;;;;;;3.40;1.58;;;14.30;87.90;;;;;;4988013;28;20037;-81
2022/11/06 07:27:49;;;;;;;2.92;1.70;;;14.30;87.90;;;;;;4997115;28;20037;-79
2022/11/06 07:30:15;;;;;;;1.92;1.33;;;14.30;87.90;;;;;;4996800;28;20102;-80
2022/11/06 07:32:41;;;;;;;2.38;1.45;;;14.40;87.90;;;;;;4997277;28;20058;-81
2022/11/06 07:35:07;;;;;;;3.08;1.40;;;14.30;88.00;;;;;;5008103;28;20029;-78
2022/11/06 07:37:34;;;;;;;3.15;1.30;;;14.30;87.90;;;;;;5007084;28;20456;-78
2022/11/06 07:39:59;;;;;;;1.55;1.30;;;14.40;87.80;;;;;;5038197;28;20078;-78
2022/11/06 07:42:26;;;;;;;5.15;1.80;;;14.40;87.90;;;;;;5038672;28;20053;-80
2022/11/06 07:44:54;;;;;;;3.80;1.90;;;14.40;87.90;;;;;;5038169;28;20025;-85
2022/11/06 07:47:20;;;;;;;2.15;1.40;;;14.40;87.90;;;;;;5021641;28;20024;-85
2022/11/06 07:49:46;;;;;;;1.88;1.30;;;14.40;87.80;;;;;;4999617;28;20026;-84
2022/11/06 07:52:12;;;;;;;4.30;1.77;;;14.40;87.80;;;;;;5009550;28;20140;-83
2022/11/06 07:54:38;;;;;;;1.98;1.40;;;14.40;87.80;;;;;;5017241;28;20026;-84
2022/11/06 07:57:03;;;;;;;2.05;1.50;;;14.40;87.80;;;;;;5000037;28;20073;-80
2022/11/06 07:59:29;;;;;;;2.35;1.42;;;14.40;87.90;;;;;;5014404;28;20026;-79
2022/11/06 08:01:55;;;;;;;2.15;1.48;;;14.40;87.90;;;;;;5017691;28;20360;-78
2022/11/06 08:04:20;;;;;;;3.33;1.30;;;14.40;87.90;;;;;;5017143;28;20567;-79
2022/11/06 08:06:46;;;;;;;2.50;1.25;;;14.50;87.80;;;;;;5017298;28;20026;-80
2022/11/06 08:09:12;;;;;;;3.00;1.33;;;14.40;87.90;;;;;;5014338;28;20041;-80
2022/11/06 08:11:38;;;;;;;5.05;1.30;;;14.40;88.00;;;;;;4999925;28;20053;-80
2022/11/06 08:14:04;;;;;;;4.32;1.33;;;14.40;88.00;;;;;;4999493;28;20030;-79
2022/11/06 08:16:30;;;;;;;2.85;1.70;;;14.50;88.10;;;;;;5015734;28;20026;-79
2022/11/06 08:18:56;;;;;;;2.42;1.23;;;14.50;88.20;;;;;;5016738;28;20089;-85
2022/11/06 08:21:21;;;;;;;3.45;1.77;;;14.40;88.10;;;;;;5017410;28;20068;-78
2022/11/06 08:23:47;;;;;;;1.50;1.00;;;14.50;88.10;;;;;;5014030;28;20038;-80
2022/11/06 08:26:13;;;;;;;4.65;1.20;;;14.50;88.00;;;;;;5017086;28;20109;-80
2022/11/06 08:28:38;;;;;;;1.90;1.30;;;14.50;88.10;;;;;;5017234;28;20116;-82
2022/11/06 08:31:05;;;;;;;4.82;1.50;;;14.50;88.10;;;;;;5014202;28;20061;-81
2022/11/06 08:33:31;;;;;;;2.97;1.00;;;14.50;88.10;;;;;;5016261;28;20515;-83
2022/11/06 08:36:04;;;;;;;3.58;1.38;;;14.50;88.20;;;;;;5014443;28;20022;-83
2022/11/06 08:38:30;;;;;;;2.53;1.08;;;14.50;88.20;;;;;;5014910;28;20107;-83
2022/11/06 08:40:55;;;;;;;2.38;1.30;;;14.50;88.20;;;;;;5006859;28;20030;-84
2022/11/06 08:46:14;;;;;;;2.40;1.30;;;14.50;88.20;;;;;;4992921;28;20492;-82
2022/11/06 08:48:39;;;;;;;2.40;1.42;;;14.60;88.20;;;;;;5008815;28;20510;-81
2022/11/06 08:51:08;;;;;;;1.75;1.15;;;14.50;88.20;;;;;;5011288;28;20149;-81
2022/11/06 08:53:34;;;;;;;3.33;1.58;;;14.60;88.20;;;;;;5006833;28;20105;-81
2022/11/06 08:56:02;;;;;;;2.70;1.33;;;14.60;88.10;;;;;;5013824;28;20068;-82
2022/11/06 08:58:28;;;;;;;1.85;1.13;;;14.60;88.20;;;;;;4985972;28;20029;-82
2022/11/06 09:00:54;;;;;;;1.90;1.33;;;14.60;88.10;;;;;;4987043;28;20034;-81
2022/11/06 09:03:20;;;;;;;1.90;1.42;;;14.60;88.20;;;;;;5010374;28;20037;-81
2022/11/06 09:05:45;;;;;;;2.53;1.65;;;14.60;88.10;;;;;;5006516;28;20033;-83
2022/11/06 09:08:12;;;;;;;3.92;1.60;;;14.60;88.10;;;;;;5006860;28;20529;-83
2022/11/06 09:10:40;;;;;;;3.67;1.92;;;14.70;88.10;;;;;;4985433;28;20150;-82
2022/11/06 09:13:06;;;;;;;3.15;1.50;;;14.70;88.20;;;;;;5003699;28;20034;-82
2022/11/06 09:15:32;;;;;;;2.10;1.45;;;14.70;88.10;;;;;;5009014;28;20083;-85
2022/11/06 09:17:58;;;;;;;4.93;1.80;;;14.80;88.00;;;;;;4985742;28;20022;-86
2022/11/06 09:20:25;;;;;;;4.55;1.65;;;14.70;88.00;;;;;;5001047;28;20034;-83
2022/11/06 09:22:51;;;;;;;2.85;1.60;;;14.80;88.00;;;;;;4988949;28;20033;-86
2022/11/06 09:25:17;;;;;;;2.45;1.38;;;14.80;87.90;;;;;;5011196;28;20029;-84
2022/11/06 09:27:45;;;;;;;2.58;0.95;;;14.80;87.80;;;;;;5014460;28;20021;-82
2022/11/06 09:30:13;;;;;;;2.03;1.10;;;14.90;87.70;;;;;;5003417;28;20089;-84
2022/11/06 09:32:49;;;;;;;1.73;1.17;;;14.90;87.60;;;;;;5006455;28;20069;-85
2022/11/06 09:35:15;;;;;;;1.75;1.17;;;14.90;87.60;;;;;;4993786;28;20032;-84
2022/11/06 09:37:41;;;;;;;1.88;0.88;;;14.90;87.70;;;;;;4985203;28;20025;-82
2022/11/06 09:40:16;;;;;;;3.33;1.17;;;14.90;87.60;;;;;;5010616;28;20411;-85
2022/11/06 09:42:58;;;;;;;3.00;1.45;;;14.90;87.70;;;;;;5005869;28;20029;-81
2022/11/06 09:45:27;;;;;;;3.78;1.88;;;14.90;87.70;;;;;;5008231;28;20451;-89
2022/11/06 09:48:11;;;;;;;2.37;1.63;;;14.90;87.80;;;;;;4989105;28;20025;-83
2022/11/06 09:50:47;;;;;;;5.68;1.70;;;14.90;87.70;;;;;;5007456;28;20073;-87
2022/11/06 09:53:21;;;;;;;4.05;1.65;;;14.90;87.80;;;;;;5007183;28;20220;-87
2022/11/06 09:55:48;;;;;;;4.03;1.65;;;14.90;87.80;;;;;;4990063;28;20026;-84
2022/11/06 09:58:20;;;;;;;5.40;1.90;;;14.90;87.80;;;;;;5006982;28;20014;-87
2022/11/06 10:00:49;;;;;;;6.80;2.17;;;14.90;87.70;;;;;;4998717;28;20597;-82
2022/11/06 10:03:28;;;;;;;4.75;1.90;;;14.90;87.70;;;;;;5005427;28;20041;-82
2022/11/06 10:05:54;;;;;;;5.13;1.60;;;14.90;87.70;;;;;;5001508;28;20062;-83
2022/11/06 10:08:21;;;;;;;4.40;1.20;;;14.80;87.50;;;;;;5007900;28;20017;-86
2022/11/06 10:11:00;;;;;;;4.88;1.40;;;14.80;87.40;;;;;;5003001;28;20550;-81
2022/11/06 10:13:34;;;;;;;2.65;0.90;;;14.80;87.30;;;;;;5003020;28;20547;-82
2022/11/06 10:16:14;;;;;;;3.80;1.23;;;14.90;87.30;;;;;;4995535;28;20034;-86
2022/11/06 10:18:40;;;;;;;;;;;14.80;87.10;;;;;;4981673;28;20487;-82
2022/11/06 10:21:23;;;;;;;6.35;1.75;;;14.90;87.10;;;;;;5005363;28;20375;-86
2022/11/06 10:24:04;;;;;;;4.80;1.67;;;14.90;87.00;;;;;;5003662;28;20033;-78
2022/11/06 10:26:47;;;;;;;3.72;1.58;;;15.00;87.00;;;;;;5009543;28;20025;-80
2022/11/06 10:29:32;;;;;;;6.15;2.28;;;15.00;86.90;;;;;;5008036;28;20093;-80
2022/11/06 10:32:29;;;;;;;3.38;1.52;;;15.20;86.80;;;;;;5000357;28;20695;-77
2022/11/06 10:35:04;;;;;;;5.80;1.30;;;15.20;86.80;;;;;;4992125;28;20443;-83
2022/11/06 10:37:34;;;;;;;3.92;1.50;;;15.30;86.70;;;;;;4984595;28;20065;-79
2022/11/06 10:40:04;;;;;;;4.82;2.00;;;15.30;86.60;;;;;;5011398;28;20080;-83
2022/11/06 10:42:39;;;;;;;6.20;1.35;;;15.30;86.40;;;;;;5015794;28;20081;-82
2022/11/06 10:45:16;;;;;;;9.70;2.08;;;15.40;86.20;;;;;;5007397;28;20464;-82
2022/11/06 10:47:55;;;;;;;5.25;1.52;;;15.50;86.00;;;;;;4995711;28;20045;-82
2022/11/06 10:50:27;;;;;;;6.63;1.90;;;15.70;85.90;;;;;;5018931;28;20026;-88
2022/11/06 10:53:07;;;;;;;3.92;1.40;;;15.70;85.50;;;;;;5013161;28;20553;-88
2022/11/06 10:55:52;;;;;;;4.85;1.60;;;15.70;85.60;;;;;;4994680;28;20034;-87
2022/11/06 10:58:21;;;;;;;5.22;1.60;;;15.80;85.40;;;;;;4996939;28;20022;-86
2022/11/06 11:00:49;;;;;;;4.73;1.43;;;15.80;85.10;;;;;;4993974;28;20801;-83
2022/11/06 11:03:34;;;;;;;1.35;1.25;;;15.80;85.20;;;;;;4994692;28;20296;-86
2022/11/06 11:06:00;;;;;;;2.13;1.10;;;15.90;84.80;;;;;;4991418;28;20033;-84
2022/11/06 11:08:29;;;;;;;3.53;1.20;;;16.00;84.80;;;;;;5015736;28;20073;-89
2022/11/06 11:11:14;;;;;;;2.58;0.98;;;16.00;84.90;;;;;;4989736;28;20037;-83
2022/11/06 11:13:41;;;;;;;8.48;1.30;;;16.10;84.60;;;;;;5013106;28;20038;-87
2022/11/06 11:16:17;;;;;;;4.18;1.45;;;16.00;84.40;;;;;;4991227;28;20030;-89
2022/11/06 11:18:43;;;;;;;3.05;1.08;;;16.10;84.50;;;;;;4992775;28;20032;-84
2022/11/06 11:21:29;;;;;;;4.10;1.48;;;16.00;84.00;;;;;;4993603;28;20493;-84
2022/11/06 11:24:07;;;;;;;8.50;2.58;;;16.10;84.30;;;;;;4993853;28;20038;-86
2022/11/06 11:26:38;;;;;;;11.18;2.28;;;16.20;84.30;;;;;;5002228;28;20077;-84
2022/11/06 11:29:16;;;;;;;5.38;1.58;;;16.30;84.40;;;;;;5013257;28;20032;-80
2022/11/06 11:31:49;;;;;;;6.15;1.20;;;16.30;84.10;;;;;;4972113;28;1162899;-78
2022/11/06 11:34:49;;;;;;;6.95;1.25;;;16.50;83.70;;;;;;5013301;28;20552;-84
2022/11/06 11:37:34;;;;;;;8.88;1.50;;;16.50;83.00;;;;;;4982433;28;20251;-83
2022/11/06 11:40:34;;;;;;;4.10;1.27;;;16.40;83.20;;;;;;5011953;28;20512;-83
2022/11/06 11:43:18;;;;;;;7.25;1.40;;;16.30;83.10;;;;;;4994634;28;20041;-78
2022/11/06 11:46:03;;;;;;;2.15;1.50;;;16.30;82.50;;;;;;5010208;28;20436;-85
2022/11/06 11:52:00;;;;;;;3.00;0.90;;;16.30;83.20;;;;;;5014895;28;20024;-85
2022/11/06 11:54:30;;;;;;;5.30;1.42;;;16.20;82.90;;;;;;5014876;28;20049;-86
2022/11/06 12:00:15;;;;;;;;;;;;;;;;;;;;;
2022/11/06 12:02:45;;;;;;;2.88;1.20;;;16.30;82.60;;;;;;5018215;28;20379;-87
2022/11/06 12:05:49;;;;;;;8.77;1.75;;;16.30;82.50;;;;;;5018129;28;20015;-87
2022/11/06 12:08:40;;;;;;;4.65;1.35;;;16.30;82.30;;;;;;5014441;28;20605;-88
2022/11/06 12:15:30;;;;;;;6.68;1.30;;;16.40;82.40;;;;;;5009091;28;20091;-89
2022/11/06 12:21:48;;;;;;;9.20;2.10;;;16.30;82.20;;;;;;5146074;23;20049;-86
2022/11/06 12:24:36;;;;;;;12.40;2.00;;;16.30;82.30;;;;;;4938047;28;20060;-84
2022/11/06 12:27:40;;;;;;;7.07;2.25;;;16.30;82.40;;;;;;4974341;28;20030;-82
2022/11/06 12:30:11;;;;;;;5.20;1.75;;;16.40;82.50;;;;;;4941537;28;20461;-80
2022/11/06 12:32:45;;;;;;;8.35;1.58;;;16.50;82.70;;;;;;4958175;28;20059;-83
2022/11/06 12:35:23;;;;;;;8.20;1.73;;;16.60;82.70;;;;;;4973110;28;20023;-85
2022/11/06 12:38:11;;;;;;;8.00;1.52;;;16.60;82.30;;;;;;4960298;28;20101;-80
2022/11/06 12:40:40;;;;;;;9.85;1.83;;;16.50;81.90;;;;;;4973630;28;20066;-83
2022/11/06 12:43:33;;;;;;;5.88;1.50;;;16.60;82.20;;;;;;4977419;28;20069;-84
2022/11/06 12:46:25;;;;;;;5.22;1.67;;;16.70;82.30;;;;;;4945084;28;20038;-81
2022/11/06 12:49:42;;;;;;;6.40;1.83;;;16.80;82.10;;;;;;4952400;28;20532;-81
2022/11/06 12:52:14;;;;;;;2.15;1.00;;;16.80;81.30;;;;;;4880057;28;20061;-80
2022/11/06 12:54:52;;;;;;;4.72;1.40;;;16.80;80.80;;;;;;4971810;28;20089;-80
2022/11/06 12:57:40;;;;;;;4.97;1.10;;;16.80;80.80;;;;;;4970962;28;20031;-80
2022/11/06 13:00:19;;;;;;;7.60;0.90;;;16.90;80.70;;;;;;4955758;28;20038;-80
2022/11/06 13:02:48;;;;;;;5.57;1.15;;;16.90;79.80;;;;;;4971075;28;20054;-80
2022/11/06 13:05:27;;;;;;;3.78;0.98;;;16.80;79.50;;;;;;4973278;28;20118;-80
2022/11/06 13:08:18;;;;;;;8.07;1.23;;;16.80;79.90;;;;;;4970415;28;20046;-80
2022/11/06 13:10:58;;;;;;;6.30;1.50;;;16.80;79.70;;;;;;4951016;28;20027;-80
2022/11/06 13:13:59;;;;;;;5.68;1.20;;;16.80;79.40;;;;;;4967694;28;20108;-81
2022/11/06 13:16:40;;;;;;;4.47;1.05;;;16.80;79.40;;;;;;4965023;28;20038;-81
2022/11/06 13:19:11;;;;;;;7.95;1.88;;;16.90;79.70;;;;;;4970738;28;20035;-80
2022/11/06 13:21:49;;;;;;;9.70;1.33;;;16.90;80.00;;;;;;4947697;28;20033;-79
2022/11/06 13:24:24;;;;;;;10.13;1.45;;;17.00;79.60;;;;;;4966153;28;20035;-80
2022/11/06 13:27:19;;;;;;;7.97;1.40;;;17.10;79.70;;;;;;4949250;28;20015;-80
2022/11/06 13:29:46;;;;;;;7.07;1.38;;;17.20;80.00;;;;;;4947548;28;20110;-80
2022/11/06 13:32:19;;;;;;;7.28;1.45;;;17.20;79.00;;;;;;4950881;28;20031;-82
2022/11/06 13:34:49;;;;;;;8.52;1.60;;;17.20;78.90;;;;;;4950721;28;20035;-82
2022/11/06 13:37:22;;;;;;;12.27;1.67;;;17.30;79.10;;;;;;4949516;28;20049;-81
2022/11/06 13:40:03;;;;;;;8.45;1.45;;;17.40;78.30;;;;;;4950533;28;20159;-82
2022/11/06 13:42:34;;;;;;;8.00;1.70;;;17.40;78.20;;;;;;4969842;28;20046;-82
2022/11/06 13:45:01;;;;;;;8.65;1.88;;;17.30;78.60;;;;;;4974207;28;20039;-81
2022/11/06 13:47:45;;;;;;;7.35;1.45;;;17.20;78.20;;;;;;4955390;28;20027;-79
2022/11/06 13:50:17;;;;;;;9.40;1.40;;;17.00;78.30;;;;;;4972750;28;20039;-78
2022/11/06 13:52:57;;;;;;;7.95;1.20;;;16.90;77.90;;;;;;4952715;28;20468;-82
2022/11/06 13:55:28;;;;;;;;;;;16.80;77.90;;;;;;4973064;28;20436;-82
2022/11/06 13:58:29;;;;;;;11.02;1.95;;;16.80;77.90;;;;;;4956097;28;19937;-80
2022/11/06 14:01:00;;;;;;;10.43;1.40;;;16.80;78.30;;;;;;4934412;29;20099;-80
2022/11/06 14:03:53;;;;;;;5.03;0.98;;;16.70;77.90;;;;;;4968548;28;20125;-81
2022/11/06 14:06:23;;;;;;;5.72;1.20;;;16.70;78.80;;;;;;4955400;28;20053;-83
2022/11/06 14:08:57;;;;;;;5.63;1.38;;;16.80;78.70;;;;;;4970206;28;20027;-80
2022/11/06 14:11:28;;;;;;;5.88;1.25;;;16.90;78.70;;;;;;4972944;28;20019;-81
2022/11/06 14:14:20;;;;;;;4.45;1.20;;;17.00;78.50;;;;;;4956910;28;20038;-81
2022/11/06 14:17:10;;;;;;;4.25;0.90;;;17.00;78.10;;;;;;4966376;28;20050;-81
2022/11/06 14:19:35;;;;;;;;;;;16.90;75.80;;;;;;4970717;28;20140;-81
2022/11/06 14:22:07;;;;;;;2.80;0.60;;;16.80;75.40;;;;;;4970436;28;20376;-80
2022/11/06 14:24:41;;;;;;;1.25;0.70;;;16.70;76.90;;;;;;4973018;28;20054;-80
2022/11/06 14:27:38;;;;;;;4.25;0.95;;;16.60;77.20;;;;;;4975816;28;20105;-80
2022/11/06 14:30:09;;;;;;;2.85;0.75;;;16.50;77.90;;;;;;4952531;28;20106;-80
2022/11/06 14:35:32;;;;;;;6.70;1.35;;;16.50;78.40;;;;;;4959438;23;20075;-80
2022/11/06 14:38:32;;;;;;;3.80;1.02;;;16.60;79.00;;;;;;4926855;28;20027;-81
2022/11/06 14:40:58;;;;;;;;;;;16.60;78.40;;;;;;4945467;29;20710;-80
2022/11/06 14:43:29;;;;;;;3.58;1.00;;;16.60;78.40;;;;;;4941907;29;20330;-80
2022/11/06 14:46:18;;;;;;;5.85;0.98;;;16.50;78.80;;;;;;4944669;29;20532;-79
2022/11/06 14:48:48;;;;;;;4.43;1.27;;;16.40;78.70;;;;;;4954577;29;20043;-80
2022/11/06 14:51:15;;;;;;;4.80;1.10;;;16.30;78.80;;;;;;4957477;28;20494;-79
2022/11/06 14:53:54;;;;;;;3.25;0.95;;;16.30;79.60;;;;;;4934287;29;20077;-79
2022/11/06 14:56:32;;;;;;;4.17;0.67;;;16.20;79.70;;;;;;4954926;28;20042;-80
2022/11/06 14:59:02;;;;;;;4.80;0.80;;;16.10;80.00;;;;;;4953034;29;20090;-82
2022/11/06 15:01:30;;;;;;;;;;;16.00;79.00;;;;;;4953966;29;20058;-80
2022/11/06 15:04:02;;;;;;;4.18;1.48;;;16.10;78.50;;;;;;4938888;28;19914;-80
2022/11/06 15:06:28;;;;;;;4.15;1.10;;;16.10;77.30;;;;;;4957158;28;20023;-79
2022/11/06 15:09:01;;;;;;;5.22;1.15;;;16.20;78.10;;;;;;4960515;28;20035;-79
2022/11/06 15:11:30;;;;;;;2.13;1.00;;;16.20;77.60;;;;;;4956839;28;20023;-82
2022/11/06 15:14:16;;;;;;;5.07;1.10;;;16.20;77.40;;;;;;4941673;29;20040;-77
2022/11/06 15:16:59;;;;;;;6.10;1.42;;;16.10;77.30;;;;;;4951633;28;20023;-79
2022/11/06 15:19:32;;;;;;;7.18;1.35;;;16.10;77.80;;;;;;4954224;28;20089;-78
2022/11/06 15:22:35;;;;;;;6.35;1.27;;;16.00;77.70;;;;;;4934081;29;20019;-79
2022/11/06 15:25:16;;;;;;;5.68;1.00;;;16.10;77.40;;;;;;4955094;29;20039;-77
2022/11/06 15:27:50;;;;;;;3.40;0.82;;;16.00;78.20;;;;;;4952182;29;20497;-78
2022/11/06 15:30:18;;;;;;;9.80;2.05;;;16.00;78.00;;;;;;4959770;29;20055;-78
2022/11/06 15:32:45;;;;;;;6.13;1.55;;;16.00;77.90;;;;;;4958436;29;20142;-78
2022/11/06 15:35:27;;;;;;;5.22;1.35;;;16.00;78.00;;;;;;4940152;29;20082;-79
2022/11/06 15:38:17;;;;;;;8.50;2.63;;;15.90;78.70;;;;;;4935916;29;20031;-86
2022/11/06 15:40:44;;;;;;;5.22;1.38;;;15.80;78.50;;;;;;4957815;29;20019;-78
2022/11/06 15:43:30;;;;;;;14.50;2.38;;;15.80;78.40;;;;;;4953643;29;20103;-78
2022/11/06 15:46:17;;;;;;;5.20;1.60;;;15.80;78.40;;;;;;4937249;29;20439;-85
2022/11/06 15:48:44;;;;;;;10.65;1.80;;;15.80;78.30;;;;;;4936078;29;20066;-78
2022/11/06 15:51:25;;;;;;;12.70;1.90;;;15.80;78.60;;;;;;4945268;29;20031;-75
2022/11/06 15:53:51;;;;;;;8.52;1.95;;;15.70;78.90;;;;;;4941685;29;20038;-78
2022/11/06 15:56:25;;;;;;;6.43;1.98;;;15.70;79.20;;;;;;4958825;29;20062;-81
2022/11/06 15:59:08;;;;;;;6.35;2.47;;;15.70;79.00;;;;;;4959605;29;20023;-83
2022/11/06 16:01:34;;;;;;;6.85;2.80;;;15.70;79.30;;;;;;4968152;28;20019;-84
2022/11/06 16:04:05;;;;;;;8.02;2.97;;;15.70;78.90;;;;;;4940541;29;20043;-91
2022/11/06 16:06:31;;;;;;;13.30;4.30;;;15.70;79.10;;;;;;4951596;28;20027;-90
2022/11/06 16:08:58;;;;;;;10.60;2.50;;;15.60;79.00;;;;;;4937936;28;20548;-85
2022/11/06 16:11:24;;;;;;;8.35;2.85;;;15.60;78.30;;;;;;4956430;29;20054;-90
2022/11/06 16:13:50;;;;;;;13.57;2.67;;;15.50;78.40;;;;;;4957206;29;20039;-90
2022/11/06 16:16:35;;;;;;;10.27;1.98;;;15.50;78.10;;;;;;4941843;28;20027;-87
2022/11/06 16:19:05;;;;;;;10.35;2.88;;;15.40;78.10;;;;;;4962045;28;20441;-86
2022/11/06 16:21:34;;;;;;;7.40;1.98;;;15.30;77.80;;;;;;4939240;28;20486;-87
2022/11/06 16:24:10;;;;;;;9.00;2.30;;;15.40;77.40;;;;;;4943371;28;20031;-92
2022/11/06 16:26:43;;;;;;;13.55;3.05;;;15.30;77.50;;;;;;4945898;29;20917;-92
2022/11/06 16:29:18;;;;;;;8.82;1.70;;;15.40;77.80;;;;;;4944944;29;20114;-93
2022/11/06 16:31:44;;;;;;;12.20;2.50;;;15.40;78.00;;;;;;4952327;29;20031;-87
2022/11/06 16:34:31;;;;;;;6.75;1.67;;;15.40;78.20;;;;;;4940457;29;20043;-81
2022/11/06 16:37:05;;;;;;;7.88;1.50;;;15.30;78.00;;;;;;4933717;28;20042;-83
2022/11/06 16:39:41;;;;;;;8.13;1.83;;;15.40;77.80;;;;;;4955975;28;20027;-82
2022/11/06 16:42:11;;;;;;;11.63;1.95;;;15.30;77.90;;;;;;4936846;29;20094;-85
2022/11/06 16:44:39;;;;;;;9.90;2.03;;;15.30;78.20;;;;;;4945139;29;20023;-88
2022/11/06 16:47:23;;;;;;;7.15;2.17;;;15.30;78.00;;;;;;4941070;29;20035;-89
2022/11/06 16:49:52;;;;;;;12.68;2.00;;;15.20;78.00;;;;;;4953022;29;20037;-86
2022/11/06 16:52:34;;;;;;;11.32;2.58;;;15.20;77.90;;;;;;4943744;29;20046;-81
2022/11/06 16:55:19;;;;;;;11.02;1.80;;;15.10;77.50;;;;;;4961576;28;20037;-85
2022/11/06 16:57:56;;;;;;;14.38;2.80;;;15.10;77.40;;;;;;4952573;29;20023;-87
2022/11/06 17:00:47;;;;;;;14.68;2.28;;;15.00;77.70;;;;;;4967760;28;20130;-85
2022/11/06 17:03:20;;;;;;;13.20;2.92;;;15.00;77.60;;;;;;4948531;29;20094;-84
2022/11/06 17:05:57;;;;;;;9.00;2.00;;;14.90;77.50;;;;;;4957456;29;20023;-86
2022/11/06 17:08:38;;;;;;;10.75;2.15;;;14.90;77.50;;;;;;4941139;29;20047;-84
2022/11/06 17:11:20;;;;;;;9.02;1.70;;;14.80;77.90;;;;;;4947130;29;20019;-85
2022/11/06 17:13:47;;;;;;;8.48;2.38;;;14.90;78.30;;;;;;4960957;29;20038;-86
2022/11/06 17:16:19;;;;;;;13.80;2.33;;;14.80;78.30;;;;;;4941033;29;20023;-89
2022/11/06 17:18:45;;;;;;;10.45;2.28;;;14.80;78.40;;;;;;4957303;29;20035;-87
2022/11/06 17:21:22;;;;;;;10.00;2.08;;;14.80;78.30;;;;;;4947504;28;20025;-85
2022/11/06 17:23:52;;;;;;;15.15;2.53;;;14.80;78.70;;;;;;4953628;28;20027;-86
2022/11/06 17:26:31;;;;;;;9.77;2.40;;;14.80;78.70;;;;;;4943750;28;20034;-86
2022/11/06 17:29:14;;;;;;;10.48;2.30;;;14.80;78.80;;;;;;4964506;28;20027;-86
2022/11/06 17:31:40;;;;;;;10.15;2.63;;;14.80;78.90;;;;;;4962253;28;20027;-86
2022/11/06 17:34:06;;;;;;;9.40;2.08;;;14.80;79.20;;;;;;4954007;28;20059;-86
2022/11/06 17:36:33;;;;;;;9.70;3.05;;;14.80;79.20;;;;;;4950784;28;20027;-87
2022/11/06 17:38:58;;;;;;;8.43;2.47;;;14.80;79.40;;;;;;4954243;28;20034;-86
2022/11/06 17:41:31;;;;;;;11.82;2.47;;;14.80;79.40;;;;;;4953791;28;20027;-86
2022/11/06 17:44:06;;;;;;;6.05;2.60;;;14.70;79.60;;;;;;4957095;28;20037;-87
2022/11/06 17:46:36;;;;;;;11.95;2.60;;;14.70;79.50;;;;;;4957993;28;20093;-84
2022/11/06 17:49:02;;;;;;;13.10;3.22;;;14.70;79.60;;;;;;4946327;28;20035;-86
2022/11/06 17:54:14;;;;;;;9.20;2.55;;;14.60;79.50;;;;;;4965036;28;20588;-84
2022/11/06 17:56:40;;;;;;;13.35;2.95;;;14.60;79.30;;;;;;4954752;28;20042;-83
2022/11/06 17:59:08;;;;;;;6.97;1.88;;;14.60;79.20;;;;;;4941148;29;20027;-83
2022/11/06 18:01:34;;;;;;;16.88;2.97;;;14.60;79.30;;;;;;4949000;28;20550;-83
2022/11/06 18:04:00;;;;;;;13.52;2.40;;;14.60;79.30;;;;;;4945913;29;20437;-83
2022/11/06 18:06:25;;;;;;;13.02;2.47;;;14.60;79.20;;;;;;4938714;29;20035;-82
2022/11/06 18:09:05;;;;;;;9.93;1.85;;;14.60;79.20;;;;;;4957930;28;20433;-82
2022/11/06 18:11:31;;;;;;;13.70;2.92;;;14.60;79.10;;;;;;4964527;28;20030;-86
2022/11/06 18:13:57;;;;;;;15.95;2.05;;;14.50;79.30;;;;;;4958578;28;20046;-86
2022/11/06 18:16:29;;;;;;;10.88;2.30;;;14.60;79.40;;;;;;4957626;28;20031;-88
2022/11/06 18:18:55;;;;;;;8.85;1.77;;;14.50;79.20;;;;;;4955633;29;20028;-86
2022/11/06 18:21:21;;;;;;;8.60;2.33;;;14.50;79.30;;;;;;4938822;29;20461;-78
2022/11/06 18:23:47;;;;;;;7.47;2.78;;;14.50;79.30;;;;;;4956697;28;20069;-78
2022/11/06 18:26:13;;;;;;;9.70;2.17;;;14.40;79.30;;;;;;4957387;29;20031;-80
2022/11/06 18:28:39;;;;;;;13.88;2.60;;;14.50;79.50;;;;;;4957127;28;20023;-80
2022/11/06 18:31:05;;;;;;;13.63;2.78;;;14.40;79.50;;;;;;4955675;29;20035;-78
2022/11/06 18:33:30;;;;;;;11.13;2.60;;;14.50;79.50;;;;;;4954433;29;20055;-77
2022/11/06 18:36:05;;;;;;;13.23;3.40;;;14.40;79.40;;;;;;4950003;28;20058;-78
2022/11/06 18:38:31;;;;;;;8.88;2.70;;;14.40;79.50;;;;;;4939594;29;20023;-81
2022/11/06 18:40:57;;;;;;;15.57;3.53;;;14.30;79.40;;;;;;4935154;29;20031;-78
2022/11/06 18:43:27;;;;;;;15.02;2.42;;;14.30;79.60;;;;;;4955784;29;20166;-80
2022/11/06 18:45:52;;;;;;;18.42;4.80;;;14.30;79.80;;;;;;4956376;29;20031;-82
2022/11/06 18:48:18;;;;;;;9.90;2.05;;;14.30;79.70;;;;;;4938748;29;20046;-80
2022/11/06 18:50:43;;;;;;;16.05;2.22;;;14.30;79.50;;;;;;4947985;28;20038;-88
2022/11/06 18:53:09;;;;;;;14.30;2.38;;;14.30;79.80;;;;;;4955987;28;20035;-88
2022/11/06 18:55:43;;;;;;;10.32;1.88;;;14.20;79.80;;;;;;4957015;29;20091;-82
2022/11/06 18:58:08;;;;;;;6.32;1.95;;;14.20;79.70;;;;;;4956139;28;20023;-83
2022/11/06 19:00:36;;;;;;;9.63;2.58;;;14.20;79.80;;;;;;4956189;28;20031;-81
2022/11/06 19:03:02;;;;;;;6.90;2.05;;;14.20;79.90;;;;;;4959846;29;20039;-82
2022/11/06 19:05:27;;;;;;;10.50;2.85;;;14.20;79.80;;;;;;4960040;28;20034;-85
2022/11/06 19:07:53;;;;;;;12.55;2.78;;;14.20;79.90;;;;;;4935666;29;20403;-83
2022/11/06 19:10:19;;;;;;;7.15;2.15;;;14.20;79.90;;;;;;4954653;29;20573;-83